Time;durP1;ratioP1;P1;durP2;ratioP2;P2;SDS_P1;SDS_P2;PMS_P1;PMS_P2;Temp;Humidity;BMP_temperature;BMP_pressure;BME280_temperature;BME280_humidity;BME280_pressure;Samples;Min_cycle;Max_cycle;Signal;HPM_P1;HPM_P2
2022/11/30 00:00:05;;;;;;;1.67;1.55;;;;;;;;;;5059717;28;20060;-84
2022/11/30 00:02:30;;;;;;;3.13;2.10;;;;;;;;;;5059292;28;20024;-84
2022/11/30 00:04:55;;;;;;;1.70;1.58;;;;;;;;;;5058861;28;20389;-85
2022/11/30 00:07:21;;;;;;;2.10;1.60;;;;;;;;;;5064170;28;20068;-84
2022/11/30 00:09:46;;;;;;;3.72;2.38;;;;;;;;;;5063410;28;20430;-84
2022/11/30 00:12:12;;;;;;;2.00;1.27;;;;;;;;;;5061081;28;20032;-84
2022/11/30 00:14:37;;;;;;;3.38;2.55;;;;;;;;;;5060541;28;20084;-84
2022/11/30 00:17:02;;;;;;;2.70;1.75;;;;;;;;;;5061508;28;20032;-84
2022/11/30 00:19:28;;;;;;;3.10;2.00;;;;;;;;;;5059909;28;20029;-85
2022/11/30 00:21:53;;;;;;;1.75;1.63;;;;;;;;;;5059658;28;20476;-84
2022/11/30 00:24:18;;;;;;;3.38;1.17;;;;;;;;;;5058883;28;20074;-85
2022/11/30 00:26:44;;;;;;;2.42;1.73;;;;;;;;;;5058440;28;20427;-84
2022/11/30 00:29:09;;;;;;;2.58;1.60;;;;;;;;;;5059499;28;20029;-86
2022/11/30 00:31:35;;;;;;;4.53;1.98;;;;;;;;;;5059782;28;20025;-84
2022/11/30 00:34:00;;;;;;;2.05;1.58;;;;;;;;;;5059363;28;20028;-84
2022/11/30 00:36:25;;;;;;;2.60;1.95;;;;;;;;;;5059824;28;20112;-84
2022/11/30 00:38:51;;;;;;;1.80;0.93;;;;;;;;;;5058066;28;20029;-84
2022/11/30 00:41:18;;;;;;;2.35;1.20;;;;;;;;;;5056752;28;20049;-84
2022/11/30 00:43:44;;;;;;;2.17;1.73;;;;;;;;;;5055088;28;20037;-84
2022/11/30 00:46:10;;;;;;;2.53;2.30;;;;;;;;;;5061967;28;20105;-85
2022/11/30 00:48:36;;;;;;;2.85;1.55;;;;;;;;;;5057920;28;20032;-84
2022/11/30 00:51:02;;;;;;;3.40;2.03;;;;;;;;;;5060707;28;20059;-84
2022/11/30 00:53:28;;;;;;;1.63;1.08;;;;;;;;;;5057592;28;20020;-85
2022/11/30 00:55:53;;;;;;;2.38;1.52;;;;;;;;;;5059171;28;20032;-85
2022/11/30 00:58:19;;;;;;;3.35;1.67;;;;;;;;;;5061191;28;20024;-85
2022/11/30 01:00:44;;;;;;;4.78;2.30;;;;;;;;;;5059703;28;20025;-85
2022/11/30 01:03:10;;;;;;;2.92;1.85;;;;;;;;;;5060466;28;20032;-85
2022/11/30 01:05:36;;;;;;;1.70;0.90;;;;;;;;;;5058117;28;20027;-85
2022/11/30 01:08:04;;;;;;;3.05;1.17;;;;;;;;;;5055184;28;20430;-84
2022/11/30 01:10:30;;;;;;;1.35;1.25;;;;;;;;;;5058202;28;20032;-85
2022/11/30 01:12:55;;;;;;;3.92;1.98;;;;;;;;;;5058236;28;20025;-85
2022/11/30 01:15:21;;;;;;;0.95;0.95;;;;;;;;;;5063036;28;20029;-85
2022/11/30 01:17:47;;;;;;;1.17;1.00;;;;;;;;;;5064985;28;20033;-85
2022/11/30 01:20:13;;;;;;;3.00;1.85;;;;;;;;;;5062431;28;20037;-86
2022/11/30 01:22:38;;;;;;;3.78;2.25;;;;;;;;;;5064602;28;20029;-86
2022/11/30 01:25:04;;;;;;;2.45;1.50;;;;;;;;;;5061804;28;20032;-86
2022/11/30 01:27:29;;;;;;;1.80;1.50;;;;;;;;;;5060140;28;20044;-83
2022/11/30 01:29:55;;;;;;;1.13;1.05;;;;;;;;;;5060755;28;20054;-84
2022/11/30 01:32:20;;;;;;;1.90;1.42;;;;;;;;;;5060522;28;20029;-84
2022/11/30 01:34:46;;;;;;;2.30;1.45;;;;;;;;;;5066278;28;20032;-85
2022/11/30 01:37:11;;;;;;;1.20;1.10;;;;;;;;;;5061670;28;20029;-84
2022/11/30 01:39:37;;;;;;;2.00;1.15;;;;;;;;;;5061925;28;20027;-84
2022/11/30 01:42:02;;;;;;;3.15;1.45;;;;;;;;;;5057597;28;20076;-84
2022/11/30 01:44:27;;;;;;;1.75;1.05;;;;;;;;;;5060897;28;20515;-84
2022/11/30 01:47:03;;;;;;;1.17;1.00;;;;;;;;;;5061761;28;20025;-84
2022/11/30 01:49:40;;;;;;;1.05;0.95;;;;;;;;;;5059350;28;20160;-85
2022/11/30 01:52:23;;;;;;;2.25;1.42;;;;;;;;;;5066551;28;20052;-84
2022/11/30 01:54:54;;;;;;;1.05;1.05;;;;;;;;;;5059048;28;20025;-85
2022/11/30 01:57:33;;;;;;;1.48;1.38;;;;;;;;;;5062100;28;20073;-85
2022/11/30 02:00:01;;;;;;;2.30;2.10;;;;;;;;;;5061227;28;20016;-84
2022/11/30 02:02:46;;;;;;;1.10;1.00;;;;;;;;;;5062522;28;20052;-85
2022/11/30 02:05:13;;;;;;;1.65;1.33;;;;;;;;;;5061499;28;20365;-84
2022/11/30 02:07:38;;;;;;;1.95;1.10;;;;;;;;;;5062956;28;20049;-84
2022/11/30 02:10:04;;;;;;;1.23;1.13;;;;;;;;;;5061185;28;20029;-84
2022/11/30 02:12:52;;;;;;;1.27;1.02;;;;;;;;;;5066261;28;20033;-84
2022/11/30 02:15:21;;;;;;;1.48;1.30;;;;;;;;;;5060999;28;20533;-85
2022/11/30 02:17:57;;;;;;;0.80;0.80;;;;;;;;;;5065226;28;20036;-84
2022/11/30 02:20:58;;;;;;;0.95;0.85;;;;;;;;;;5061006;28;20056;-83
2022/11/30 02:23:26;;;;;;;0.80;0.80;;;;;;;;;;5059138;28;20108;-85
2022/11/30 02:26:16;;;;;;;1.08;0.80;;;;;;;;;;5065689;28;20103;-85
2022/11/30 02:28:56;;;;;;;1.33;0.80;;;;;;;;;;5062899;28;20111;-85
2022/11/30 02:31:30;;;;;;;1.50;1.40;;;;;;;;;;5062099;28;20055;-84
2022/11/30 02:33:57;;;;;;;1.45;0.98;;;;;;;;;;5066572;28;20531;-83
2022/11/30 02:36:23;;;;;;;0.52;0.52;;;;;;;;;;5062197;28;20381;-84
2022/11/30 02:38:50;;;;;;;1.30;1.20;;;;;;;;;;5060951;28;20053;-83
2022/11/30 02:41:16;;;;;;;2.83;1.90;;;;;;;;;;5057040;28;20044;-86
2022/11/30 02:43:41;;;;;;;0.90;0.82;;;;;;;;;;5055985;28;20025;-86
2022/11/30 02:46:16;;;;;;;1.98;1.38;;;;;;;;;;5062175;28;20063;-86
2022/11/30 02:49:02;;;;;;;1.15;0.95;;;;;;;;;;5060247;28;20392;-85
2022/11/30 02:51:30;;;;;;;1.98;0.98;;;;;;;;;;5062755;28;20021;-86
2022/11/30 02:53:56;;;;;;;4.43;1.05;;;;;;;;;;5061292;28;20094;-86
2022/11/30 02:56:22;;;;;;;1.30;1.10;;;;;;;;;;5062759;28;20055;-86
2022/11/30 02:58:48;;;;;;;1.23;0.90;;;;;;;;;;5062970;28;20112;-87
2022/11/30 03:01:13;;;;;;;0.85;0.63;;;;;;;;;;5055397;28;20120;-84
2022/11/30 03:03:39;;;;;;;2.38;1.48;;;;;;;;;;5058216;28;20123;-86
2022/11/30 03:06:04;;;;;;;1.35;1.00;;;;;;;;;;5062791;28;20108;-85
2022/11/30 03:08:30;;;;;;;1.27;1.17;;;;;;;;;;5059952;28;20392;-86
2022/11/30 03:10:55;;;;;;;1.50;1.13;;;;;;;;;;5063908;28;20091;-83
2022/11/30 03:13:20;;;;;;;1.40;1.00;;;;;;;;;;5062707;28;20087;-84
2022/11/30 03:15:46;;;;;;;1.55;1.08;;;;;;;;;;5057183;28;20032;-83
2022/11/30 03:18:12;;;;;;;0.65;0.57;;;;;;;;;;5058348;28;20102;-83
2022/11/30 03:20:42;;;;;;;2.15;1.55;;;;;;;;;;5058119;28;20025;-84
2022/11/30 03:23:07;;;;;;;0.90;0.85;;;;;;;;;;5060435;28;20043;-84
2022/11/30 03:25:33;;;;;;;1.35;0.90;;;;;;;;;;5059118;28;20033;-86
2022/11/30 03:28:00;;;;;;;1.35;1.25;;;;;;;;;;5062938;28;20456;-86
2022/11/30 03:30:26;;;;;;;1.55;1.45;;;;;;;;;;5060129;28;20031;-84
2022/11/30 03:32:51;;;;;;;0.85;0.85;;;;;;;;;;5058420;28;20020;-85
2022/11/30 03:35:17;;;;;;;1.55;0.77;;;;;;;;;;5059042;28;20036;-85
2022/11/30 03:37:42;;;;;;;1.52;1.13;;;;;;;;;;5061105;28;20032;-86
2022/11/30 03:40:08;;;;;;;0.52;0.52;;;;;;;;;;5056485;28;20476;-86
2022/11/30 03:42:33;;;;;;;1.20;1.08;;;;;;;;;;5056794;28;20059;-86
2022/11/30 03:44:59;;;;;;;3.00;1.33;;;;;;;;;;5056789;28;20059;-85
2022/11/30 03:47:24;;;;;;;1.23;0.90;;;;;;;;;;5058666;28;20020;-85
2022/11/30 03:49:50;;;;;;;2.63;1.50;;;;;;;;;;5063014;28;20032;-85
2022/11/30 03:52:15;;;;;;;1.00;0.95;;;;;;;;;;5057835;28;20477;-85
2022/11/30 03:54:40;;;;;;;1.02;0.85;;;;;;;;;;5063987;28;20031;-86
2022/11/30 03:57:06;;;;;;;1.40;1.20;;;;;;;;;;5058977;28;20086;-86
2022/11/30 03:59:31;;;;;;;2.35;1.55;;;;;;;;;;5059262;28;20036;-86
2022/11/30 04:01:57;;;;;;;2.42;1.45;;;;;;;;;;5052067;28;20103;-86
2022/11/30 04:04:22;;;;;;;2.88;1.92;;;;;;;;;;5060142;28;20032;-84
2022/11/30 04:06:47;;;;;;;1.98;1.77;;;;;;;;;;5060152;28;20029;-86
2022/11/30 04:09:13;;;;;;;5.30;2.55;;;;;;;;;;5058880;28;20013;-86
2022/11/30 04:11:39;;;;;;;3.30;1.88;;;;;;;;;;5058491;28;20045;-85
2022/11/30 04:14:05;;;;;;;1.50;1.08;;;;;;;;;;5054679;28;20052;-84
2022/11/30 04:16:30;;;;;;;1.63;1.27;;;;;;;;;;5069954;28;20089;-86
2022/11/30 04:18:56;;;;;;;2.30;1.70;;;;;;;;;;5058617;28;20520;-84
2022/11/30 04:21:21;;;;;;;1.55;1.45;;;;;;;;;;5062774;28;20051;-85
2022/11/30 04:23:47;;;;;;;2.33;1.40;;;;;;;;;;5059498;28;20039;-84
2022/11/30 04:26:14;;;;;;;2.20;1.23;;;;;;;;;;5055572;28;20657;-85
2022/11/30 04:28:41;;;;;;;0.80;0.80;;;;;;;;;;5062938;28;20024;-85
2022/11/30 04:31:07;;;;;;;3.47;2.38;;;;;;;;;;5057529;28;20029;-85
2022/11/30 04:33:32;;;;;;;1.58;1.45;;;;;;;;;;5062351;28;20116;-84
2022/11/30 04:36:01;;;;;;;1.52;1.42;;;;;;;;;;5062446;28;20017;-85
2022/11/30 04:38:27;;;;;;;1.52;1.42;;;;;;;;;;5058778;28;20028;-86
2022/11/30 04:40:53;;;;;;;2.80;1.52;;;;;;;;;;5060834;28;20025;-85
2022/11/30 04:43:20;;;;;;;1.80;1.15;;;;;;;;;;5057351;28;20033;-85
2022/11/30 04:45:46;;;;;;;1.48;1.00;;;;;;;;;;5070368;28;20048;-85
2022/11/30 04:48:13;;;;;;;1.95;1.25;;;;;;;;;;5063651;28;20021;-84
2022/11/30 04:50:38;;;;;;;1.33;0.95;;;;;;;;;;5069363;28;20028;-86
2022/11/30 04:53:05;;;;;;;4.60;2.40;;;;;;;;;;5062085;28;20064;-86
2022/11/30 04:55:30;;;;;;;1.85;1.27;;;;;;;;;;5063789;28;20051;-86
2022/11/30 04:57:56;;;;;;;2.30;1.42;;;;;;;;;;5062458;28;20499;-85
2022/11/30 05:00:22;;;;;;;1.13;0.70;;;;;;;;;;5062370;28;20111;-85
2022/11/30 05:02:47;;;;;;;1.63;1.38;;;;;;;;;;5057120;28;20053;-88
2022/11/30 05:05:13;;;;;;;1.08;0.82;;;;;;;;;;5064720;28;20437;-86
2022/11/30 05:07:39;;;;;;;0.82;0.70;;;;;;;;;;5061964;28;20020;-86
2022/11/30 05:10:06;;;;;;;0.90;0.80;;;;;;;;;;5061925;28;20122;-86
2022/11/30 05:12:31;;;;;;;0.55;0.55;;;;;;;;;;5064068;28;20024;-86
2022/11/30 05:14:56;;;;;;;0.68;0.68;;;;;;;;;;5063254;28;20060;-85
2022/11/30 05:17:22;;;;;;;2.03;1.13;;;;;;;;;;5057679;28;20021;-89
2022/11/30 05:19:47;;;;;;;1.30;1.00;;;;;;;;;;5061595;28;20051;-86
2022/11/30 05:22:13;;;;;;;3.83;1.02;;;;;;;;;;5061131;28;20074;-87
2022/11/30 05:24:38;;;;;;;1.77;1.00;;;;;;;;;;5060007;28;20025;-86
2022/11/30 05:27:04;;;;;;;1.52;1.13;;;;;;;;;;5060385;28;20036;-86
2022/11/30 05:29:29;;;;;;;1.83;1.02;;;;;;;;;;5057506;28;20022;-87
2022/11/30 05:31:55;;;;;;;2.70;1.40;;;;;;;;;;5055650;28;20052;-85
2022/11/30 05:34:21;;;;;;;1.52;1.42;;;;;;;;;;5053471;28;20485;-83
2022/11/30 05:36:46;;;;;;;1.15;1.05;;;;;;;;;;5061186;28;20024;-84
2022/11/30 05:39:12;;;;;;;0.82;0.77;;;;;;;;;;5063654;28;20060;-85
2022/11/30 05:41:37;;;;;;;1.02;0.93;;;;;;;;;;5064068;28;20051;-84
2022/11/30 05:44:03;;;;;;;2.72;1.60;;;;;;;;;;5059223;28;20028;-84
2022/11/30 05:46:29;;;;;;;1.23;0.77;;;;;;;;;;5058424;28;20136;-83
2022/11/30 05:48:54;;;;;;;2.58;1.40;;;;;;;;;;5058744;28;20527;-83
2022/11/30 05:51:20;;;;;;;1.52;0.98;;;;;;;;;;5058191;28;20033;-85
2022/11/30 05:53:46;;;;;;;2.20;2.00;;;;;;;;;;5061997;28;20416;-84
2022/11/30 05:56:15;;;;;;;2.05;1.58;;;;;;;;;;5058953;28;20029;-83
2022/11/30 05:58:41;;;;;;;1.23;1.00;;;;;;;;;;5056483;28;20385;-84
2022/11/30 06:01:07;;;;;;;2.20;1.42;;;;;;;;;;5058047;28;20035;-83
2022/11/30 06:03:35;;;;;;;1.55;1.45;;;;;;;;;;5061324;28;20800;-90
2022/11/30 06:06:01;;;;;;;4.35;2.17;;;;;;;;;;5060517;28;20025;-87
2022/11/30 06:08:27;;;;;;;2.33;1.65;;;;;;;;;;5061889;28;20477;-84
2022/11/30 06:10:52;;;;;;;2.58;1.48;;;;;;;;;;5056758;28;20024;-83
2022/11/30 06:13:18;;;;;;;1.33;1.23;;;;;;;;;;5055000;28;20485;-85
2022/11/30 06:15:44;;;;;;;1.38;1.27;;;;;;;;;;5056767;28;20101;-83
2022/11/30 06:18:13;;;;;;;1.55;1.00;;;;;;;;;;5058835;28;20163;-84
2022/11/30 06:20:38;;;;;;;2.20;2.00;;;;;;;;;;5053328;28;20033;-85
2022/11/30 06:23:04;;;;;;;1.40;1.30;;;;;;;;;;5066725;28;20123;-86
2022/11/30 06:26:25;;;;;;;1.23;1.13;;;;;;;;;;5071196;28;20387;-81
2022/11/30 06:28:51;;;;;;;1.90;1.40;;;;;;;;;;5057386;28;20077;-85
2022/11/30 06:31:16;;;;;;;1.30;1.20;;;;;;;;;;5054646;28;20032;-83
2022/11/30 06:33:42;;;;;;;3.63;1.73;;;;;;;;;;5052659;28;20033;-84
2022/11/30 06:36:08;;;;;;;1.88;1.77;;;;;;;;;;5054068;28;20036;-85
2022/11/30 06:38:33;;;;;;;1.90;1.30;;;;;;;;;;5051865;28;20033;-82
2022/11/30 06:41:04;;;;;;;1.58;1.48;;;;;;;;;;5051060;28;20032;-84
2022/11/30 06:43:35;;;;;;;1.50;1.40;;;;;;;;;;5052904;28;20551;-85
2022/11/30 06:46:02;;;;;;;1.45;1.35;;;;;;;;;;5052573;28;20110;-84
2022/11/30 06:48:27;;;;;;;2.33;1.45;;;;;;;;;;5051364;28;20413;-84
2022/11/30 06:50:53;;;;;;;1.55;0.85;;;;;;;;;;5044626;28;20037;-85
2022/11/30 06:53:18;;;;;;;2.63;1.63;;;;;;;;;;5053775;28;20055;-85
2022/11/30 06:55:44;;;;;;;2.28;2.08;;;;;;;;;;5055288;28;20124;-85
2022/11/30 06:58:09;;;;;;;2.45;1.95;;;;;;;;;;5056146;28;20029;-83
2022/11/30 07:00:36;;;;;;;2.35;1.63;;;;;;;;;;5056347;28;20032;-84
2022/11/30 07:03:02;;;;;;;1.67;1.55;;;;;;;;;;5058315;28;20017;-84
2022/11/30 07:05:29;;;;;;;4.03;2.40;;;;;;;;;;5058476;28;20025;-83
2022/11/30 07:07:55;;;;;;;1.98;1.73;;;;;;;;;;5041353;28;20025;-84
2022/11/30 07:10:21;;;;;;;2.95;1.88;;;;;;;;;;5052625;28;20082;-84
2022/11/30 07:12:47;;;;;;;3.40;2.25;;;;;;;;;;5057646;28;20044;-84
2022/11/30 07:15:13;;;;;;;3.55;2.47;;;;;;;;;;5061328;28;20021;-85
2022/11/30 07:17:38;;;;;;;1.70;1.23;;;;;;;;;;5055328;28;20033;-84
2022/11/30 07:20:04;;;;;;;1.92;1.60;;;;;;;;;;5056381;28;20116;-84
2022/11/30 07:22:30;;;;;;;5.43;2.72;;;;;;;;;;5056954;28;20032;-84
2022/11/30 07:27:39;;;;;;;5.05;1.58;;;;;;;;;;5054709;28;20087;-84
2022/11/30 07:30:05;;;;;;;1.00;0.95;;;;;;;;;;5057615;28;20021;-83
2022/11/30 07:32:30;;;;;;;1.70;1.20;;;;;;;;;;5058875;28;20024;-86
2022/11/30 07:34:56;;;;;;;1.85;1.33;;;;;;;;;;5053121;28;20024;-85
2022/11/30 07:37:21;;;;;;;3.92;2.00;;;;;;;;;;5046304;28;20032;-83
2022/11/30 07:39:47;;;;;;;1.15;1.05;;;;;;;;;;5040290;28;20025;-84
2022/11/30 07:42:12;;;;;;;0.90;0.90;;;;;;;;;;5041568;28;20037;-83
2022/11/30 07:44:37;;;;;;;1.05;0.95;;;;;;;;;;5040294;28;20033;-87
2022/11/30 07:47:03;;;;;;;1.63;1.33;;;;;;;;;;5038433;28;20385;-83
2022/11/30 07:49:28;;;;;;;1.25;1.00;;;;;;;;;;5048435;28;20031;-82
2022/11/30 07:51:54;;;;;;;1.50;1.38;;;;;;;;;;5042535;28;20090;-83
2022/11/30 07:54:19;;;;;;;3.90;2.75;;;;;;;;;;5041635;28;20104;-82
2022/11/30 07:56:45;;;;;;;11.07;7.03;;;;;;;;;;5041165;28;20491;-85
2022/11/30 07:59:10;;;;;;;2.35;1.83;;;;;;;;;;5043375;28;20028;-84
2022/11/30 08:01:36;;;;;;;1.95;1.35;;;;;;;;;;5046695;28;20492;-82
2022/11/30 08:04:01;;;;;;;1.30;1.20;;;;;;;;;;5039767;28;20024;-82
2022/11/30 08:06:29;;;;;;;2.13;1.48;;;;;;;;;;5043111;28;20033;-81
2022/11/30 08:08:58;;;;;;;0.98;0.88;;;;;;;;;;5041618;28;20091;-84
2022/11/30 08:11:28;;;;;;;4.45;1.63;;;;;;;;;;5046232;28;20035;-87
2022/11/30 08:13:53;;;;;;;;;;;;;;;;;;5042173;28;20108;-83
2022/11/30 08:16:24;;;;;;;1.55;1.08;;;;;;;;;;5043447;28;19958;-84
2022/11/30 08:18:50;;;;;;;1.38;1.08;;;;;;;;;;5044231;28;20056;-84
2022/11/30 08:21:18;;;;;;;17.58;1.27;;;;;;;;;;5042737;28;20465;-82
2022/11/30 08:23:46;;;;;;;1.10;0.98;;;;;;;;;;5041382;28;20029;-87
2022/11/30 08:26:20;;;;;;;1.00;0.90;;;;;;;;;;5041702;28;20056;-85
2022/11/30 08:28:47;;;;;;;1.63;1.25;;;;;;;;;;5038939;28;20021;-87
2022/11/30 08:31:15;;;;;;;1.40;1.15;;;;;;;;;;5037434;28;20049;-83
2022/11/30 08:33:41;;;;;;;1.33;1.15;;;;;;;;;;5035878;28;20044;-86
2022/11/30 08:36:12;;;;;;;0.93;0.88;;;;;;;;;;5043065;28;20021;-84
2022/11/30 08:38:39;;;;;;;1.10;1.00;;;;;;;;;;5037901;28;20033;-84
2022/11/30 08:41:06;;;;;;;2.42;2.08;;;;;;;;;;5043338;28;20104;-85
2022/11/30 08:43:31;;;;;;;3.40;1.90;;;;;;;;;;5039422;28;20550;-84
2022/11/30 08:45:57;;;;;;;1.95;1.70;;;;;;;;;;5041950;28;20175;-87
2022/11/30 08:48:23;;;;;;;1.50;1.40;;;;;;;;;;5041318;28;20025;-85
2022/11/30 08:50:48;;;;;;;5.18;2.00;;;;;;;;;;5046279;28;20083;-84
2022/11/30 08:53:14;;;;;;;7.07;5.25;;;;;;;;;;5045808;28;20029;-82
2022/11/30 08:55:39;;;;;;;3.65;2.78;;;;;;;;;;5041834;28;20029;-86
2022/11/30 08:58:05;;;;;;;2.05;1.25;;;;;;;;;;5044567;28;20473;-86
2022/11/30 09:00:30;;;;;;;3.38;2.50;;;;;;;;;;5039857;28;20370;-85
2022/11/30 09:02:55;;;;;;;3.55;2.53;;;;;;;;;;5043660;28;20079;-84
2022/11/30 09:05:21;;;;;;;4.10;1.95;;;;;;;;;;5042014;28;20021;-85
2022/11/30 09:07:47;;;;;;;1.63;1.20;;;;;;;;;;5035147;28;20029;-85
2022/11/30 09:10:12;;;;;;;3.50;1.83;;;;;;;;;;5041171;28;20056;-84
2022/11/30 09:12:39;;;;;;;2.90;1.63;;;;;;;;;;5040639;28;20036;-85
2022/11/30 09:15:06;;;;;;;1.40;1.27;;;;;;;;;;5038953;28;20022;-84
2022/11/30 09:17:32;;;;;;;2.75;1.50;;;;;;;;;;5041366;28;20476;-83
2022/11/30 09:20:00;;;;;;;2.22;1.70;;;;;;;;;;5044810;28;20026;-85
2022/11/30 09:22:26;;;;;;;3.53;2.35;;;;;;;;;;5041437;28;20037;-84
2022/11/30 09:24:52;;;;;;;2.72;1.88;;;;;;;;;;5037874;28;20045;-83
2022/11/30 09:27:17;;;;;;;4.03;1.88;;;;;;;;;;5039790;28;20029;-85
2022/11/30 09:29:43;;;;;;;2.15;1.60;;;;;;;;;;5041485;28;20037;-85
2022/11/30 09:32:08;;;;;;;1.48;1.38;;;;;;;;;;5038413;28;20477;-84
2022/11/30 09:34:34;;;;;;;1.70;1.27;;;;;;;;;;5035497;28;20528;-84
2022/11/30 09:36:59;;;;;;;4.03;1.55;;;;;;;;;;5041773;28;20025;-84
2022/11/30 09:39:24;;;;;;;3.78;2.10;;;;;;;;;;5037495;28;20040;-85
2022/11/30 09:42:08;;;;;;;2.88;2.53;;;;;;;;;;5038167;28;20516;-85
2022/11/30 09:44:54;;;;;;;3.70;1.88;;;;;;;;;;5040309;28;20064;-86
2022/11/30 09:47:22;;;;;;;2.83;1.85;;;;;;;;;;5041502;28;20435;-83
2022/11/30 09:49:48;;;;;;;1.10;1.00;;;;;;;;;;5040033;28;20050;-85
2022/11/30 09:52:27;;;;;;;1.80;1.17;;;;;;;;;;5041965;28;20088;-86
2022/11/30 09:54:55;;;;;;;4.00;2.80;;;;;;;;;;5035727;28;20029;-82
2022/11/30 09:57:36;;;;;;;1.98;1.75;;;;;;;;;;5044594;28;20539;-84
2022/11/30 10:00:09;;;;;;;6.82;2.30;;;;;;;;;;5037874;28;20029;-85
2022/11/30 10:02:37;;;;;;;2.13;1.95;;;;;;;;;;5031697;28;20384;-85
2022/11/30 10:05:10;;;;;;;2.40;1.48;;;;;;;;;;5040485;28;20025;-81
2022/11/30 10:07:54;;;;;;;2.42;1.65;;;;;;;;;;5037539;28;20612;-86
2022/11/30 10:10:39;;;;;;;2.63;2.20;;;;;;;;;;5036594;28;20140;-84
2022/11/30 10:13:27;;;;;;;2.88;1.33;;;;;;;;;;5037120;28;20029;-86
2022/11/30 10:16:07;;;;;;;1.77;1.42;;;;;;;;;;5035895;28;20029;-83
2022/11/30 10:19:02;;;;;;;2.30;1.63;;;;;;;;;;5038871;28;20017;-84
2022/11/30 10:21:36;;;;;;;1.48;1.38;;;;;;;;;;5056001;28;20040;-84
2022/11/30 10:24:18;;;;;;;3.88;1.90;;;;;;;;;;5035501;28;20389;-84
2022/11/30 10:26:57;;;;;;;2.80;1.48;;;;;;;;;;5041933;28;20028;-84
2022/11/30 10:29:39;;;;;;;2.47;1.87;;;;;;;;;;5040104;28;20075;-84
2022/11/30 10:32:21;;;;;;;2.50;1.92;;;;;;;;;;5032550;28;20033;-84
2022/11/30 10:34:53;;;;;;;3.47;2.33;;;;;;;;;;5040807;28;20052;-83
2022/11/30 10:37:22;;;;;;;1.65;1.50;;;;;;;;;;5040370;28;20096;-82
2022/11/30 10:40:01;;;;;;;2.42;1.65;;;;;;;;;;5038149;28;20020;-84
2022/11/30 10:42:44;;;;;;;2.10;1.90;;;;;;;;;;5042922;28;20033;-85
2022/11/30 10:45:16;;;;;;;1.75;1.35;;;;;;;;;;5048719;28;20112;-84
2022/11/30 10:47:47;;;;;;;4.13;2.78;;;;;;;;;;5043035;28;20049;-84
2022/11/30 10:50:14;;;;;;;2.42;2.17;;;;;;;;;;5041164;28;20053;-86
2022/11/30 10:52:45;;;;;;;1.80;1.23;;;;;;;;;;5036386;28;20100;-85
2022/11/30 10:55:23;;;;;;;2.47;1.98;;;;;;;;;;5039500;28;20028;-83
2022/11/30 10:57:54;;;;;;;2.17;1.58;;;;;;;;;;5041410;28;20032;-83
2022/11/30 11:00:20;;;;;;;1.40;1.20;;;;;;;;;;5042856;28;20397;-83
2022/11/30 11:02:47;;;;;;;1.73;1.55;;;;;;;;;;5039524;28;20029;-84
2022/11/30 11:05:24;;;;;;;2.30;1.63;;;;;;;;;;5044004;28;20453;-85
2022/11/30 11:07:54;;;;;;;2.20;1.92;;;;;;;;;;5037476;28;20034;-83
2022/11/30 11:10:33;;;;;;;2.10;1.60;;;;;;;;;;5045296;28;20116;-86
2022/11/30 11:12:59;;;;;;;3.28;1.60;;;;;;;;;;5041567;28;20034;-85
2022/11/30 11:15:27;;;;;;;3.10;2.00;;;;;;;;;;5042177;28;20036;-85
2022/11/30 11:18:08;;;;;;;2.83;1.70;;;;;;;;;;5049512;28;20118;-84
2022/11/30 11:20:37;;;;;;;1.77;1.20;;;;;;;;;;5027066;28;20031;-85
2022/11/30 11:23:03;;;;;;;5.88;2.78;;;;;;;;;;5040559;28;20152;-85
2022/11/30 11:25:32;;;;;;;3.03;1.83;;;;;;;;;;5042013;28;20120;-85
2022/11/30 11:28:10;;;;;;;3.78;2.00;;;;;;;;;;5038346;28;20021;-86
2022/11/30 11:30:36;;;;;;;3.08;2.10;;;;;;;;;;5046408;28;20024;-87
2022/11/30 11:33:26;;;;;;;3.20;2.03;;;;;;;;;;5039285;28;20029;-86
2022/11/30 11:35:55;;;;;;;2.00;1.50;;;;;;;;;;5041642;28;20369;-83
2022/11/30 11:38:20;;;;;;;4.80;2.70;;;;;;;;;;5037634;28;20119;-86
2022/11/30 11:41:04;;;;;;;2.55;2.33;;;;;;;;;;5039242;28;20497;-87
2022/11/30 11:43:32;;;;;;;2.80;2.13;;;;;;;;;;5036811;28;20026;-85
2022/11/30 11:46:10;;;;;;;1.63;1.35;;;;;;;;;;5050867;28;20041;-86
2022/11/30 11:48:55;;;;;;;2.00;1.80;;;;;;;;;;5046454;28;20064;-84
2022/11/30 11:51:30;;;;;;;4.95;2.60;;;;;;;;;;5042947;28;20021;-85
2022/11/30 11:54:49;;;;;;;3.60;2.55;;;;;;;;;;5040846;28;20033;-86
2022/11/30 11:57:17;;;;;;;2.63;2.05;;;;;;;;;;4985422;28;20089;-84
2022/11/30 11:59:49;;;;;;;5.95;2.80;;;;;;;;;;5036404;28;20695;-86
2022/11/30 12:02:40;;;;;;;3.50;2.03;;;;;;;;;;5042271;28;20505;-86
2022/11/30 12:05:20;;;;;;;2.60;2.40;;;;;;;;;;5044124;28;20542;-84
2022/11/30 12:07:57;;;;;;;;;;;;;;;;;;5043110;28;20025;-85
2022/11/30 12:10:51;;;;;;;1.58;1.48;;;;;;;;;;5048133;28;19913;-85
2022/11/30 12:13:25;;;;;;;5.18;3.17;;;;;;;;;;5044478;28;20029;-85
2022/11/30 12:16:13;;;;;;;7.30;4.43;;;;;;;;;;5038679;28;20030;-83
2022/11/30 12:18:53;;;;;;;8.15;6.57;;;;;;;;;;5045744;28;20029;-85
2022/11/30 12:21:54;;;;;;;7.68;4.70;;;;;;;;;;5039865;28;20020;-86
2022/11/30 12:24:22;;;;;;;4.72;4.00;;;;;;;;;;5027265;28;20041;-85
2022/11/30 12:27:02;;;;;;;4.82;3.03;;;;;;;;;;5044806;28;20036;-84
2022/11/30 12:30:10;;;;;;;3.85;2.55;;;;;;;;;;5037091;28;20033;-85
2022/11/30 12:32:57;;;;;;;6.47;2.75;;;;;;;;;;5042158;28;20104;-85
2022/11/30 12:35:47;;;;;;;3.95;2.78;;;;;;;;;;5036298;28;20026;-85
2022/11/30 12:38:54;;;;;;;3.13;1.90;;;;;;;;;;5039178;28;20381;-84
2022/11/30 12:41:28;;;;;;;3.75;1.88;;;;;;;;;;5044004;28;20033;-86
2022/11/30 12:44:27;;;;;;;2.67;2.05;;;;;;;;;;5047738;28;20025;-85
2022/11/30 12:47:15;;;;;;;2.80;1.97;;;;;;;;;;5042591;28;20413;-83
2022/11/30 12:49:49;;;;;;;3.85;2.20;;;;;;;;;;5038707;28;20482;-84
2022/11/30 12:52:35;;;;;;;2.78;1.98;;;;;;;;;;5043191;28;20029;-84
2022/11/30 12:55:19;;;;;;;2.78;2.50;;;;;;;;;;5041111;28;20025;-84
2022/11/30 12:57:58;;;;;;;2.25;1.50;;;;;;;;;;5032768;28;20024;-84
2022/11/30 13:00:38;;;;;;;2.97;2.50;;;;;;;;;;5041744;28;20045;-85
2022/11/30 13:03:18;;;;;;;3.20;2.45;;;;;;;;;;5044917;28;20055;-84
2022/11/30 13:05:56;;;;;;;5.70;2.20;;;;;;;;;;5040579;28;20039;-83
2022/11/30 13:08:42;;;;;;;4.50;2.97;;;;;;;;;;5038349;28;20044;-85
2022/11/30 13:11:16;;;;;;;3.47;2.45;;;;;;;;;;5035441;28;20021;-84
2022/11/30 13:13:48;;;;;;;8.05;3.83;;;;;;;;;;5045826;28;20494;-84
2022/11/30 13:16:14;;;;;;;4.70;2.60;;;;;;;;;;5042436;28;20406;-84
2022/11/30 13:18:41;;;;;;;3.15;2.67;;;;;;;;;;5036675;28;20110;-83
2022/11/30 13:21:33;;;;;;;3.75;1.98;;;;;;;;;;5039415;28;20362;-86
2022/11/30 13:24:11;;;;;;;4.72;3.30;;;;;;;;;;5032980;28;20033;-83
2022/11/30 13:27:00;;;;;;;2.95;1.88;;;;;;;;;;5039618;28;20033;-82
2022/11/30 13:29:47;;;;;;;1.43;1.33;;;;;;;;;;5036953;28;20029;-86
2022/11/30 13:32:16;;;;;;;3.03;1.52;;;;;;;;;;5044487;28;20499;-83
2022/11/30 13:34:43;;;;;;;2.50;1.98;;;;;;;;;;5037406;28;20442;-85
2022/11/30 13:37:18;;;;;;;2.80;2.20;;;;;;;;;;5042056;28;20492;-84
2022/11/30 13:39:58;;;;;;;4.00;3.05;;;;;;;;;;5036925;28;20029;-84
2022/11/30 13:42:32;;;;;;;7.60;3.60;;;;;;;;;;5044392;28;20058;-82
2022/11/30 13:45:13;;;;;;;3.17;2.30;;;;;;;;;;5044287;28;20082;-83
2022/11/30 13:47:40;;;;;;;3.33;2.65;;;;;;;;;;5042001;28;20029;-84
2022/11/30 13:50:14;;;;;;;2.60;2.20;;;;;;;;;;5042278;28;20381;-82
2022/11/30 13:52:59;;;;;;;2.03;1.58;;;;;;;;;;5043121;28;20047;-84
2022/11/30 13:55:51;;;;;;;2.70;1.30;;;;;;;;;;5039959;28;20061;-83
2022/11/30 13:58:18;;;;;;;2.20;1.95;;;;;;;;;;5038946;28;20385;-85
2022/11/30 14:01:18;;;;;;;2.35;1.98;;;;;;;;;;5042071;28;20029;-82
2022/11/30 14:03:44;;;;;;;4.85;1.85;;;;;;;;;;5044648;28;20029;-82
2022/11/30 14:06:44;;;;;;;3.17;1.77;;;;;;;;;;5042114;28;20386;-83
2022/11/30 14:09:40;;;;;;;3.58;2.42;;;;;;;;;;5035434;28;20045;-84
2022/11/30 14:12:31;;;;;;;3.65;2.10;;;;;;;;;;5044760;28;20021;-82
2022/11/30 14:14:58;;;;;;;3.47;2.05;;;;;;;;;;5036161;28;20107;-83
2022/11/30 14:17:26;;;;;;;4.93;2.60;;;;;;;;;;5037710;28;20457;-82
2022/11/30 14:19:58;;;;;;;3.30;2.90;;;;;;;;;;5043896;28;20021;-84
2022/11/30 14:22:25;;;;;;;8.57;2.95;;;;;;;;;;5042895;28;20538;-82
2022/11/30 14:24:52;;;;;;;2.40;2.03;;;;;;;;;;5043029;28;20056;-82
2022/11/30 14:27:22;;;;;;;3.58;2.15;;;;;;;;;;5039828;28;20535;-82
2022/11/30 14:29:52;;;;;;;1.30;1.20;;;;;;;;;;5038350;28;20025;-82
2022/11/30 14:32:27;;;;;;;1.80;1.25;;;;;;;;;;5038703;28;20497;-83
2022/11/30 14:35:02;;;;;;;1.30;1.17;;;;;;;;;;5034719;28;20033;-84
2022/11/30 14:37:32;;;;;;;1.77;1.20;;;;;;;;;;5037752;28;20025;-83
2022/11/30 14:40:04;;;;;;;3.05;1.70;;;;;;;;;;5042044;28;20029;-84
2022/11/30 14:42:32;;;;;;;1.13;1.00;;;;;;;;;;5036488;28;20477;-83
2022/11/30 14:44:58;;;;;;;1.15;1.05;;;;;;;;;;5036756;28;20017;-84
2022/11/30 14:47:26;;;;;;;3.63;1.10;;;;;;;;;;5050069;28;20032;-85
2022/11/30 14:49:55;;;;;;;1.55;1.02;;;;;;;;;;5040898;28;20385;-82
2022/11/30 14:52:43;;;;;;;1.10;0.93;;;;;;;;;;5048802;28;20393;-83
2022/11/30 14:55:31;;;;;;;1.85;1.67;;;;;;;;;;5047324;28;20021;-83
2022/11/30 14:58:31;;;;;;;4.40;1.52;;;;;;;;;;5039597;28;20043;-82
2022/11/30 15:00:58;;;;;;;2.30;1.80;;;;;;;;;;5040334;28;20370;-82
2022/11/30 15:03:31;;;;;;;2.03;1.10;;;;;;;;;;5041272;28;20382;-82
2022/11/30 15:05:58;;;;;;;0.98;0.85;;;;;;;;;;5041473;28;20595;-85